sensor_id;sensor_type;location;lat;lon;timestamp;P1;durP1;ratioP1;P2;durP2;ratioP2
4466;SDS011;2246;42.664;23.278;2023-07-22T00:02:03;12.13;;;4.80;;
4466;SDS011;2246;42.664;23.278;2023-07-22T00:04:29;16.77;;;5.60;;
4466;SDS011;2246;42.664;23.278;2023-07-22T00:06:55;16.02;;;5.25;;
4466;SDS011;2246;42.664;23.278;2023-07-22T00:09:21;20.52;;;5.55;;
4466;SDS011;2246;42.664;23.278;2023-07-22T00:11:49;13.80;;;5.50;;
4466;SDS011;2246;42.664;23.278;2023-07-22T00:14:15;12.80;;;5.32;;
4466;SDS011;2246;42.664;23.278;2023-07-22T00:16:41;15.85;;;5.28;;
4466;SDS011;2246;42.664;23.278;2023-07-22T00:19:07;15.35;;;5.35;;
4466;SDS011;2246;42.664;23.278;2023-07-22T00:21:33;13.40;;;5.18;;
4466;SDS011;2246;42.664;23.278;2023-07-22T00:24:00;17.88;;;5.63;;
4466;SDS011;2246;42.664;23.278;2023-07-22T00:26:26;14.63;;;5.28;;
4466;SDS011;2246;42.664;23.278;2023-07-22T00:28:52;14.18;;;5.25;;
4466;SDS011;2246;42.664;23.278;2023-07-22T00:31:18;21.85;;;6.10;;
4466;SDS011;2246;42.664;23.278;2023-07-22T00:33:44;18.95;;;5.00;;
4466;SDS011;2246;42.664;23.278;2023-07-22T00:36:10;17.17;;;5.82;;
4466;SDS011;2246;42.664;23.278;2023-07-22T00:38:36;14.85;;;5.45;;
4466;SDS011;2246;42.664;23.278;2023-07-22T00:41:02;15.70;;;5.47;;
4466;SDS011;2246;42.664;23.278;2023-07-22T00:43:32;9.50;;;5.03;;
4466;SDS011;2246;42.664;23.278;2023-07-22T00:45:58;12.35;;;5.40;;
4466;SDS011;2246;42.664;23.278;2023-07-22T00:48:24;17.85;;;5.22;;
4466;SDS011;2246;42.664;23.278;2023-07-22T00:50:51;14.85;;;5.05;;
4466;SDS011;2246;42.664;23.278;2023-07-22T00:53:17;12.00;;;5.05;;
4466;SDS011;2246;42.664;23.278;2023-07-22T00:55:43;15.63;;;5.75;;
4466;SDS011;2246;42.664;23.278;2023-07-22T00:58:10;13.25;;;5.28;;
4466;SDS011;2246;42.664;23.278;2023-07-22T01:00:36;14.10;;;5.07;;
4466;SDS011;2246;42.664;23.278;2023-07-22T01:03:03;13.80;;;5.00;;
4466;SDS011;2246;42.664;23.278;2023-07-22T01:05:29;12.52;;;4.85;;
4466;SDS011;2246;42.664;23.278;2023-07-22T01:07:55;13.25;;;5.32;;
4466;SDS011;2246;42.664;23.278;2023-07-22T01:10:22;15.15;;;6.13;;
4466;SDS011;2246;42.664;23.278;2023-07-22T01:12:48;14.73;;;6.25;;
4466;SDS011;2246;42.664;23.278;2023-07-22T01:15:14;13.18;;;5.30;;
4466;SDS011;2246;42.664;23.278;2023-07-22T01:17:40;14.02;;;5.70;;
4466;SDS011;2246;42.664;23.278;2023-07-22T01:20:06;12.05;;;5.75;;
4466;SDS011;2246;42.664;23.278;2023-07-22T01:22:34;11.25;;;5.30;;
4466;SDS011;2246;42.664;23.278;2023-07-22T01:25:01;12.43;;;5.50;;
4466;SDS011;2246;42.664;23.278;2023-07-22T01:27:28;15.93;;;5.32;;
4466;SDS011;2246;42.664;23.278;2023-07-22T01:29:54;12.38;;;5.38;;
4466;SDS011;2246;42.664;23.278;2023-07-22T01:32:20;13.20;;;5.72;;
4466;SDS011;2246;42.664;23.278;2023-07-22T01:34:46;15.55;;;6.30;;
4466;SDS011;2246;42.664;23.278;2023-07-22T01:37:13;14.32;;;5.28;;
4466;SDS011;2246;42.664;23.278;2023-07-22T01:39:39;13.02;;;5.30;;
4466;SDS011;2246;42.664;23.278;2023-07-22T01:42:05;9.52;;;5.57;;
4466;SDS011;2246;42.664;23.278;2023-07-22T01:44:31;12.13;;;5.40;;
4466;SDS011;2246;42.664;23.278;2023-07-22T01:46:57;14.15;;;5.20;;
4466;SDS011;2246;42.664;23.278;2023-07-22T01:49:23;12.00;;;5.53;;
4466;SDS011;2246;42.664;23.278;2023-07-22T01:51:52;12.23;;;5.65;;
4466;SDS011;2246;42.664;23.278;2023-07-22T01:54:18;12.25;;;5.47;;
4466;SDS011;2246;42.664;23.278;2023-07-22T01:56:44;10.27;;;5.15;;
4466;SDS011;2246;42.664;23.278;2023-07-22T01:59:11;11.63;;;5.40;;
4466;SDS011;2246;42.664;23.278;2023-07-22T02:01:37;15.13;;;5.55;;
4466;SDS011;2246;42.664;23.278;2023-07-22T02:04:03;14.20;;;5.90;;
4466;SDS011;2246;42.664;23.278;2023-07-22T02:06:31;15.10;;;5.25;;
4466;SDS011;2246;42.664;23.278;2023-07-22T02:08:57;12.57;;;5.93;;
4466;SDS011;2246;42.664;23.278;2023-07-22T02:11:23;18.23;;;6.10;;
4466;SDS011;2246;42.664;23.278;2023-07-22T02:13:49;12.73;;;5.60;;
4466;SDS011;2246;42.664;23.278;2023-07-22T02:16:15;10.23;;;5.70;;
4466;SDS011;2246;42.664;23.278;2023-07-22T02:18:41;16.02;;;5.75;;
4466;SDS011;2246;42.664;23.278;2023-07-22T02:21:07;14.13;;;6.75;;
4466;SDS011;2246;42.664;23.278;2023-07-22T02:23:33;12.40;;;7.45;;
4466;SDS011;2246;42.664;23.278;2023-07-22T02:25:59;12.40;;;6.22;;
4466;SDS011;2246;42.664;23.278;2023-07-22T02:28:26;11.57;;;5.82;;
4466;SDS011;2246;42.664;23.278;2023-07-22T02:30:53;13.25;;;6.00;;
4466;SDS011;2246;42.664;23.278;2023-07-22T02:33:19;17.85;;;6.05;;
4466;SDS011;2246;42.664;23.278;2023-07-22T02:35:47;16.35;;;6.45;;
4466;SDS011;2246;42.664;23.278;2023-07-22T02:38:13;13.65;;;5.93;;
4466;SDS011;2246;42.664;23.278;2023-07-22T02:40:39;19.80;;;6.20;;
4466;SDS011;2246;42.664;23.278;2023-07-22T02:43:05;10.75;;;5.63;;
4466;SDS011;2246;42.664;23.278;2023-07-22T02:45:32;14.90;;;6.22;;
4466;SDS011;2246;42.664;23.278;2023-07-22T02:47:58;20.17;;;5.60;;
4466;SDS011;2246;42.664;23.278;2023-07-22T02:50:24;18.35;;;6.07;;
4466;SDS011;2246;42.664;23.278;2023-07-22T02:52:51;13.43;;;6.82;;
4466;SDS011;2246;42.664;23.278;2023-07-22T02:55:17;13.98;;;6.07;;
4466;SDS011;2246;42.664;23.278;2023-07-22T02:57:47;15.00;;;6.22;;
4466;SDS011;2246;42.664;23.278;2023-07-22T03:00:14;17.70;;;6.70;;
4466;SDS011;2246;42.664;23.278;2023-07-22T03:02:50;13.50;;;6.18;;
4466;SDS011;2246;42.664;23.278;2023-07-22T03:07:43;12.57;;;6.10;;
4466;SDS011;2246;42.664;23.278;2023-07-22T03:10:09;19.42;;;6.57;;
4466;SDS011;2246;42.664;23.278;2023-07-22T03:12:35;14.30;;;6.38;;
4466;SDS011;2246;42.664;23.278;2023-07-22T03:15:01;15.02;;;6.22;;
4466;SDS011;2246;42.664;23.278;2023-07-22T03:17:33;14.73;;;7.05;;
4466;SDS011;2246;42.664;23.278;2023-07-22T03:19:59;17.30;;;6.38;;
4466;SDS011;2246;42.664;23.278;2023-07-22T03:22:25;19.48;;;8.23;;
4466;SDS011;2246;42.664;23.278;2023-07-22T03:24:51;23.65;;;9.52;;
4466;SDS011;2246;42.664;23.278;2023-07-22T03:27:17;17.50;;;7.10;;
4466;SDS011;2246;42.664;23.278;2023-07-22T03:29:44;15.52;;;6.97;;
4466;SDS011;2246;42.664;23.278;2023-07-22T03:32:10;18.35;;;7.00;;
4466;SDS011;2246;42.664;23.278;2023-07-22T03:34:36;15.15;;;6.07;;
4466;SDS011;2246;42.664;23.278;2023-07-22T03:37:02;24.20;;;7.78;;
4466;SDS011;2246;42.664;23.278;2023-07-22T03:39:28;17.15;;;6.97;;
4466;SDS011;2246;42.664;23.278;2023-07-22T03:41:54;18.90;;;7.50;;
4466;SDS011;2246;42.664;23.278;2023-07-22T03:44:20;19.02;;;6.55;;
4466;SDS011;2246;42.664;23.278;2023-07-22T03:46:46;19.85;;;8.20;;
4466;SDS011;2246;42.664;23.278;2023-07-22T03:49:12;18.08;;;7.15;;
4466;SDS011;2246;42.664;23.278;2023-07-22T03:51:38;22.38;;;7.63;;
4466;SDS011;2246;42.664;23.278;2023-07-22T03:54:04;19.90;;;6.72;;
4466;SDS011;2246;42.664;23.278;2023-07-22T03:56:30;20.48;;;7.38;;
4466;SDS011;2246;42.664;23.278;2023-07-22T03:58:56;21.40;;;7.77;;
4466;SDS011;2246;42.664;23.278;2023-07-22T04:01:22;18.05;;;7.00;;
4466;SDS011;2246;42.664;23.278;2023-07-22T04:03:48;15.82;;;6.53;;
4466;SDS011;2246;42.664;23.278;2023-07-22T04:06:14;15.07;;;7.28;;
4466;SDS011;2246;42.664;23.278;2023-07-22T04:08:40;17.58;;;6.63;;
4466;SDS011;2246;42.664;23.278;2023-07-22T04:11:06;24.48;;;11.32;;
4466;SDS011;2246;42.664;23.278;2023-07-22T04:13:32;19.25;;;7.60;;
4466;SDS011;2246;42.664;23.278;2023-07-22T04:15:58;13.80;;;6.32;;
4466;SDS011;2246;42.664;23.278;2023-07-22T04:18:24;17.27;;;6.45;;
4466;SDS011;2246;42.664;23.278;2023-07-22T04:20:55;14.40;;;5.57;;
4466;SDS011;2246;42.664;23.278;2023-07-22T04:23:22;14.52;;;5.97;;
4466;SDS011;2246;42.664;23.278;2023-07-22T04:25:48;13.18;;;6.32;;
4466;SDS011;2246;42.664;23.278;2023-07-22T04:28:14;16.98;;;6.70;;
4466;SDS011;2246;42.664;23.278;2023-07-22T04:30:40;14.60;;;6.65;;
4466;SDS011;2246;42.664;23.278;2023-07-22T04:33:06;15.88;;;6.07;;
4466;SDS011;2246;42.664;23.278;2023-07-22T04:35:38;16.30;;;6.43;;
4466;SDS011;2246;42.664;23.278;2023-07-22T04:38:04;16.15;;;7.10;;
4466;SDS011;2246;42.664;23.278;2023-07-22T04:40:30;14.45;;;5.82;;
4466;SDS011;2246;42.664;23.278;2023-07-22T04:42:56;14.90;;;5.97;;
4466;SDS011;2246;42.664;23.278;2023-07-22T04:45:23;13.57;;;5.97;;
4466;SDS011;2246;42.664;23.278;2023-07-22T04:47:49;15.70;;;5.93;;
4466;SDS011;2246;42.664;23.278;2023-07-22T04:50:15;9.00;;;5.38;;
4466;SDS011;2246;42.664;23.278;2023-07-22T04:52:42;18.27;;;6.03;;
4466;SDS011;2246;42.664;23.278;2023-07-22T04:55:09;11.23;;;5.25;;
4466;SDS011;2246;42.664;23.278;2023-07-22T04:57:35;15.88;;;5.57;;
4466;SDS011;2246;42.664;23.278;2023-07-22T05:00:04;17.60;;;5.55;;
4466;SDS011;2246;42.664;23.278;2023-07-22T05:02:32;10.75;;;5.55;;
4466;SDS011;2246;42.664;23.278;2023-07-22T05:04:58;13.77;;;5.85;;
4466;SDS011;2246;42.664;23.278;2023-07-22T05:07:24;12.10;;;5.50;;
4466;SDS011;2246;42.664;23.278;2023-07-22T05:09:50;13.18;;;5.68;;
4466;SDS011;2246;42.664;23.278;2023-07-22T05:12:16;17.53;;;5.93;;
4466;SDS011;2246;42.664;23.278;2023-07-22T05:14:44;14.75;;;5.50;;
4466;SDS011;2246;42.664;23.278;2023-07-22T05:17:10;12.60;;;6.05;;
4466;SDS011;2246;42.664;23.278;2023-07-22T05:19:36;10.45;;;5.38;;
4466;SDS011;2246;42.664;23.278;2023-07-22T05:22:02;15.15;;;5.80;;
4466;SDS011;2246;42.664;23.278;2023-07-22T05:24:28;10.35;;;5.60;;
4466;SDS011;2246;42.664;23.278;2023-07-22T05:26:54;12.82;;;5.97;;
4466;SDS011;2246;42.664;23.278;2023-07-22T05:29:20;11.00;;;5.78;;
4466;SDS011;2246;42.664;23.278;2023-07-22T05:31:46;11.68;;;5.97;;
4466;SDS011;2246;42.664;23.278;2023-07-22T05:34:12;16.67;;;5.57;;
4466;SDS011;2246;42.664;23.278;2023-07-22T05:36:39;13.55;;;5.75;;
4466;SDS011;2246;42.664;23.278;2023-07-22T05:39:05;14.53;;;5.57;;
4466;SDS011;2246;42.664;23.278;2023-07-22T05:41:34;18.88;;;6.40;;
4466;SDS011;2246;42.664;23.278;2023-07-22T05:44:00;14.35;;;5.40;;
4466;SDS011;2246;42.664;23.278;2023-07-22T05:46:26;15.15;;;5.63;;
4466;SDS011;2246;42.664;23.278;2023-07-22T05:48:52;14.32;;;5.90;;
4466;SDS011;2246;42.664;23.278;2023-07-22T05:51:18;8.60;;;5.53;;
4466;SDS011;2246;42.664;23.278;2023-07-22T05:53:44;15.48;;;5.75;;
4466;SDS011;2246;42.664;23.278;2023-07-22T05:56:10;12.10;;;5.55;;
4466;SDS011;2246;42.664;23.278;2023-07-22T05:58:36;11.43;;;5.15;;
4466;SDS011;2246;42.664;23.278;2023-07-22T06:01:02;10.38;;;5.22;;
4466;SDS011;2246;42.664;23.278;2023-07-22T06:03:28;9.57;;;5.40;;
4466;SDS011;2246;42.664;23.278;2023-07-22T06:05:54;14.20;;;5.63;;
4466;SDS011;2246;42.664;23.278;2023-07-22T06:08:20;9.40;;;5.55;;
4466;SDS011;2246;42.664;23.278;2023-07-22T06:10:46;9.77;;;6.03;;
4466;SDS011;2246;42.664;23.278;2023-07-22T06:13:12;15.20;;;6.75;;
4466;SDS011;2246;42.664;23.278;2023-07-22T06:15:38;11.00;;;6.50;;
4466;SDS011;2246;42.664;23.278;2023-07-22T06:18:04;11.88;;;5.75;;
4466;SDS011;2246;42.664;23.278;2023-07-22T06:20:34;19.02;;;6.20;;
4466;SDS011;2246;42.664;23.278;2023-07-22T06:23:01;14.77;;;5.90;;
4466;SDS011;2246;42.664;23.278;2023-07-22T06:25:27;14.63;;;5.93;;
4466;SDS011;2246;42.664;23.278;2023-07-22T06:27:53;12.23;;;6.50;;
4466;SDS011;2246;42.664;23.278;2023-07-22T06:30:19;17.88;;;6.63;;
4466;SDS011;2246;42.664;23.278;2023-07-22T06:32:45;11.30;;;6.40;;
4466;SDS011;2246;42.664;23.278;2023-07-22T06:35:11;18.15;;;6.78;;
4466;SDS011;2246;42.664;23.278;2023-07-22T06:37:38;12.00;;;6.28;;
4466;SDS011;2246;42.664;23.278;2023-07-22T06:42:31;15.23;;;6.65;;
4466;SDS011;2246;42.664;23.278;2023-07-22T06:44:57;11.57;;;6.07;;
4466;SDS011;2246;42.664;23.278;2023-07-22T06:47:23;16.08;;;6.80;;
4466;SDS011;2246;42.664;23.278;2023-07-22T06:49:49;16.73;;;6.88;;
4466;SDS011;2246;42.664;23.278;2023-07-22T06:52:15;14.65;;;6.50;;
4466;SDS011;2246;42.664;23.278;2023-07-22T06:54:42;9.00;;;6.22;;
4466;SDS011;2246;42.664;23.278;2023-07-22T06:57:08;14.38;;;6.75;;
4466;SDS011;2246;42.664;23.278;2023-07-22T06:59:34;12.13;;;6.45;;
4466;SDS011;2246;42.664;23.278;2023-07-22T07:02:00;13.23;;;5.88;;
4466;SDS011;2246;42.664;23.278;2023-07-22T07:04:26;16.65;;;7.22;;
4466;SDS011;2246;42.664;23.278;2023-07-22T07:06:52;17.98;;;6.70;;
4466;SDS011;2246;42.664;23.278;2023-07-22T07:09:18;15.10;;;6.95;;
4466;SDS011;2246;42.664;23.278;2023-07-22T07:11:44;16.95;;;6.60;;
4466;SDS011;2246;42.664;23.278;2023-07-22T07:14:10;17.58;;;7.45;;
4466;SDS011;2246;42.664;23.278;2023-07-22T07:16:36;12.73;;;6.80;;
4466;SDS011;2246;42.664;23.278;2023-07-22T07:19:02;19.48;;;7.10;;
4466;SDS011;2246;42.664;23.278;2023-07-22T07:21:28;17.77;;;6.72;;
4466;SDS011;2246;42.664;23.278;2023-07-22T07:23:54;23.17;;;7.40;;
4466;SDS011;2246;42.664;23.278;2023-07-22T07:26:21;17.35;;;6.90;;
4466;SDS011;2246;42.664;23.278;2023-07-22T07:28:48;21.53;;;8.03;;
4466;SDS011;2246;42.664;23.278;2023-07-22T07:31:15;15.02;;;6.90;;
4466;SDS011;2246;42.664;23.278;2023-07-22T07:33:41;15.00;;;7.20;;
4466;SDS011;2246;42.664;23.278;2023-07-22T07:36:07;18.85;;;7.15;;
4466;SDS011;2246;42.664;23.278;2023-07-22T07:38:33;16.88;;;7.35;;
4466;SDS011;2246;42.664;23.278;2023-07-22T07:41:01;13.27;;;7.30;;
4466;SDS011;2246;42.664;23.278;2023-07-22T07:43:27;11.05;;;6.55;;
4466;SDS011;2246;42.664;23.278;2023-07-22T07:48:58;17.35;;;7.00;;
4466;SDS011;2246;42.664;23.278;2023-07-22T07:51:26;20.70;;;7.72;;
4466;SDS011;2246;42.664;23.278;2023-07-22T07:53:52;16.73;;;7.60;;
4466;SDS011;2246;42.664;23.278;2023-07-22T07:56:19;11.67;;;7.07;;
4466;SDS011;2246;42.664;23.278;2023-07-22T07:58:46;13.40;;;7.60;;
4466;SDS011;2246;42.664;23.278;2023-07-22T08:01:12;19.80;;;6.82;;
4466;SDS011;2246;42.664;23.278;2023-07-22T08:03:38;15.80;;;6.85;;
4466;SDS011;2246;42.664;23.278;2023-07-22T08:06:05;20.35;;;7.55;;
4466;SDS011;2246;42.664;23.278;2023-07-22T08:08:31;14.18;;;7.63;;
4466;SDS011;2246;42.664;23.278;2023-07-22T08:10:58;14.00;;;6.67;;
4466;SDS011;2246;42.664;23.278;2023-07-22T08:13:24;20.75;;;7.50;;
4466;SDS011;2246;42.664;23.278;2023-07-22T08:15:52;23.30;;;7.63;;
4466;SDS011;2246;42.664;23.278;2023-07-22T08:18:18;15.27;;;7.43;;
4466;SDS011;2246;42.664;23.278;2023-07-22T08:20:44;19.98;;;7.97;;
4466;SDS011;2246;42.664;23.278;2023-07-22T08:23:12;19.33;;;7.43;;
4466;SDS011;2246;42.664;23.278;2023-07-22T08:25:38;19.97;;;8.17;;
4466;SDS011;2246;42.664;23.278;2023-07-22T08:28:04;17.92;;;7.10;;
4466;SDS011;2246;42.664;23.278;2023-07-22T08:30:30;16.55;;;7.45;;
4466;SDS011;2246;42.664;23.278;2023-07-22T08:32:56;19.80;;;7.70;;
4466;SDS011;2246;42.664;23.278;2023-07-22T08:35:22;15.98;;;7.05;;
4466;SDS011;2246;42.664;23.278;2023-07-22T08:37:49;12.05;;;6.93;;
4466;SDS011;2246;42.664;23.278;2023-07-22T08:40:15;15.02;;;7.30;;
4466;SDS011;2246;42.664;23.278;2023-07-22T08:42:41;15.75;;;7.22;;
4466;SDS011;2246;42.664;23.278;2023-07-22T08:45:11;15.77;;;7.50;;
4466;SDS011;2246;42.664;23.278;2023-07-22T08:47:38;13.15;;;6.95;;
4466;SDS011;2246;42.664;23.278;2023-07-22T08:50:06;16.45;;;7.30;;
4466;SDS011;2246;42.664;23.278;2023-07-22T08:52:33;25.02;;;8.30;;
4466;SDS011;2246;42.664;23.278;2023-07-22T08:54:59;16.65;;;7.45;;
4466;SDS011;2246;42.664;23.278;2023-07-22T08:59:52;18.60;;;7.27;;
4466;SDS011;2246;42.664;23.278;2023-07-22T09:02:19;15.32;;;7.07;;
4466;SDS011;2246;42.664;23.278;2023-07-22T09:04:45;18.23;;;7.63;;
4466;SDS011;2246;42.664;23.278;2023-07-22T09:09:38;18.30;;;7.73;;
4466;SDS011;2246;42.664;23.278;2023-07-22T09:12:06;14.23;;;7.85;;
4466;SDS011;2246;42.664;23.278;2023-07-22T09:14:32;12.73;;;7.07;;
4466;SDS011;2246;42.664;23.278;2023-07-22T09:16:59;13.63;;;7.65;;
4466;SDS011;2246;42.664;23.278;2023-07-22T09:19:25;19.92;;;7.63;;
4466;SDS011;2246;42.664;23.278;2023-07-22T09:21:51;16.53;;;6.63;;
4466;SDS011;2246;42.664;23.278;2023-07-22T09:24:21;21.38;;;6.70;;
4466;SDS011;2246;42.664;23.278;2023-07-22T09:26:48;13.35;;;7.32;;
4466;SDS011;2246;42.664;23.278;2023-07-22T09:29:14;17.20;;;7.10;;
4466;SDS011;2246;42.664;23.278;2023-07-22T09:31:50;16.13;;;6.88;;
4466;SDS011;2246;42.664;23.278;2023-07-22T09:34:16;19.75;;;6.90;;
4466;SDS011;2246;42.664;23.278;2023-07-22T09:36:55;18.75;;;6.95;;
4466;SDS011;2246;42.664;23.278;2023-07-22T09:39:21;16.33;;;7.28;;
4466;SDS011;2246;42.664;23.278;2023-07-22T09:41:47;13.18;;;6.90;;
4466;SDS011;2246;42.664;23.278;2023-07-22T09:44:14;14.95;;;7.40;;
4466;SDS011;2246;42.664;23.278;2023-07-22T09:46:40;15.10;;;6.72;;
4466;SDS011;2246;42.664;23.278;2023-07-22T09:49:09;17.00;;;6.33;;
4466;SDS011;2246;42.664;23.278;2023-07-22T09:51:37;14.48;;;6.75;;
4466;SDS011;2246;42.664;23.278;2023-07-22T09:54:03;25.65;;;9.10;;
4466;SDS011;2246;42.664;23.278;2023-07-22T09:56:30;16.52;;;6.78;;
4466;SDS011;2246;42.664;23.278;2023-07-22T09:58:59;18.85;;;7.43;;
4466;SDS011;2246;42.664;23.278;2023-07-22T10:01:25;19.42;;;6.97;;
4466;SDS011;2246;42.664;23.278;2023-07-22T10:03:53;11.98;;;6.53;;
4466;SDS011;2246;42.664;23.278;2023-07-22T10:06:26;19.45;;;7.18;;
4466;SDS011;2246;42.664;23.278;2023-07-22T10:08:53;17.17;;;6.57;;
4466;SDS011;2246;42.664;23.278;2023-07-22T10:11:20;16.95;;;7.05;;
4466;SDS011;2246;42.664;23.278;2023-07-22T10:13:48;15.40;;;6.38;;
4466;SDS011;2246;42.664;23.278;2023-07-22T10:16:15;20.85;;;7.20;;
4466;SDS011;2246;42.664;23.278;2023-07-22T10:18:42;20.60;;;7.20;;
4466;SDS011;2246;42.664;23.278;2023-07-22T10:21:09;21.10;;;7.78;;
4466;SDS011;2246;42.664;23.278;2023-07-22T10:23:36;28.48;;;7.55;;
4466;SDS011;2246;42.664;23.278;2023-07-22T10:26:02;19.67;;;5.55;;
4466;SDS011;2246;42.664;23.278;2023-07-22T10:28:28;21.15;;;5.88;;
4466;SDS011;2246;42.664;23.278;2023-07-22T10:30:54;17.20;;;5.55;;
4466;SDS011;2246;42.664;23.278;2023-07-22T10:33:22;17.80;;;5.90;;
4466;SDS011;2246;42.664;23.278;2023-07-22T10:36:07;20.92;;;6.13;;
4466;SDS011;2246;42.664;23.278;2023-07-22T10:38:34;19.35;;;5.63;;
4466;SDS011;2246;42.664;23.278;2023-07-22T10:43:30;20.98;;;5.97;;
4466;SDS011;2246;42.664;23.278;2023-07-22T10:45:57;18.85;;;5.28;;
4466;SDS011;2246;42.664;23.278;2023-07-22T10:48:27;23.45;;;6.07;;
4466;SDS011;2246;42.664;23.278;2023-07-22T10:50:54;20.45;;;6.00;;
4466;SDS011;2246;42.664;23.278;2023-07-22T10:58:27;18.65;;;5.10;;
4466;SDS011;2246;42.664;23.278;2023-07-22T11:00:55;22.20;;;4.68;;
4466;SDS011;2246;42.664;23.278;2023-07-22T11:03:21;21.10;;;4.80;;
4466;SDS011;2246;42.664;23.278;2023-07-22T11:05:51;23.90;;;5.60;;
4466;SDS011;2246;42.664;23.278;2023-07-22T11:08:34;29.20;;;5.57;;
4466;SDS011;2246;42.664;23.278;2023-07-22T11:11:01;24.60;;;5.50;;
4466;SDS011;2246;42.664;23.278;2023-07-22T11:13:27;19.30;;;6.07;;
4466;SDS011;2246;42.664;23.278;2023-07-22T11:16:03;19.33;;;5.25;;
4466;SDS011;2246;42.664;23.278;2023-07-22T11:18:41;24.80;;;5.53;;
4466;SDS011;2246;42.664;23.278;2023-07-22T11:21:09;30.80;;;6.07;;
4466;SDS011;2246;42.664;23.278;2023-07-22T11:23:35;25.90;;;6.03;;
4466;SDS011;2246;42.664;23.278;2023-07-22T11:26:01;21.63;;;5.03;;
4466;SDS011;2246;42.664;23.278;2023-07-22T11:28:28;23.42;;;5.65;;
4466;SDS011;2246;42.664;23.278;2023-07-22T11:30:54;21.40;;;5.30;;
4466;SDS011;2246;42.664;23.278;2023-07-22T11:33:20;32.30;;;6.20;;
4466;SDS011;2246;42.664;23.278;2023-07-22T11:35:46;27.37;;;5.13;;
4466;SDS011;2246;42.664;23.278;2023-07-22T11:38:12;30.57;;;5.10;;
4466;SDS011;2246;42.664;23.278;2023-07-22T11:40:38;17.05;;;5.47;;
4466;SDS011;2246;42.664;23.278;2023-07-22T11:43:04;23.80;;;4.90;;
4466;SDS011;2246;42.664;23.278;2023-07-22T11:45:30;21.77;;;5.10;;
4466;SDS011;2246;42.664;23.278;2023-07-22T11:47:57;28.30;;;5.55;;
4466;SDS011;2246;42.664;23.278;2023-07-22T11:50:32;19.10;;;4.80;;
4466;SDS011;2246;42.664;23.278;2023-07-22T11:52:59;30.70;;;6.05;;
4466;SDS011;2246;42.664;23.278;2023-07-22T11:55:25;26.52;;;5.40;;
4466;SDS011;2246;42.664;23.278;2023-07-22T11:57:54;22.70;;;5.47;;
4466;SDS011;2246;42.664;23.278;2023-07-22T12:00:20;18.70;;;5.40;;
4466;SDS011;2246;42.664;23.278;2023-07-22T12:02:47;25.58;;;5.50;;
4466;SDS011;2246;42.664;23.278;2023-07-22T12:05:20;24.92;;;4.95;;
4466;SDS011;2246;42.664;23.278;2023-07-22T12:07:46;19.80;;;5.70;;
4466;SDS011;2246;42.664;23.278;2023-07-22T12:10:12;22.83;;;5.40;;
4466;SDS011;2246;42.664;23.278;2023-07-22T12:12:45;24.70;;;5.57;;
4466;SDS011;2246;42.664;23.278;2023-07-22T12:17:56;22.10;;;5.35;;
4466;SDS011;2246;42.664;23.278;2023-07-22T12:20:23;19.33;;;5.18;;
4466;SDS011;2246;42.664;23.278;2023-07-22T12:22:50;21.50;;;5.60;;
4466;SDS011;2246;42.664;23.278;2023-07-22T12:25:17;25.45;;;5.97;;
4466;SDS011;2246;42.664;23.278;2023-07-22T12:27:43;26.38;;;5.20;;
4466;SDS011;2246;42.664;23.278;2023-07-22T12:32:36;19.02;;;5.28;;
4466;SDS011;2246;42.664;23.278;2023-07-22T12:35:02;25.05;;;5.15;;
4466;SDS011;2246;42.664;23.278;2023-07-22T12:37:28;18.08;;;5.47;;
4466;SDS011;2246;42.664;23.278;2023-07-22T12:39:55;23.73;;;5.65;;
4466;SDS011;2246;42.664;23.278;2023-07-22T12:44:47;27.40;;;5.15;;
4466;SDS011;2246;42.664;23.278;2023-07-22T12:47:13;22.65;;;6.18;;
4466;SDS011;2246;42.664;23.278;2023-07-22T12:49:39;21.80;;;5.20;;
4466;SDS011;2246;42.664;23.278;2023-07-22T12:52:06;23.77;;;4.90;;
4466;SDS011;2246;42.664;23.278;2023-07-22T12:54:34;20.45;;;5.15;;
4466;SDS011;2246;42.664;23.278;2023-07-22T12:57:00;26.00;;;5.82;;
4466;SDS011;2246;42.664;23.278;2023-07-22T12:59:27;18.58;;;5.45;;
4466;SDS011;2246;42.664;23.278;2023-07-22T13:01:53;24.67;;;5.43;;
4466;SDS011;2246;42.664;23.278;2023-07-22T13:04:19;19.42;;;5.30;;
4466;SDS011;2246;42.664;23.278;2023-07-22T13:06:45;29.83;;;6.07;;
4466;SDS011;2246;42.664;23.278;2023-07-22T13:09:11;16.80;;;5.00;;
4466;SDS011;2246;42.664;23.278;2023-07-22T13:11:37;25.70;;;5.00;;
4466;SDS011;2246;42.664;23.278;2023-07-22T13:14:04;18.70;;;5.45;;
4466;SDS011;2246;42.664;23.278;2023-07-22T13:16:30;24.80;;;5.38;;
4466;SDS011;2246;42.664;23.278;2023-07-22T13:18:56;29.45;;;5.35;;
4466;SDS011;2246;42.664;23.278;2023-07-22T13:21:25;21.13;;;5.25;;
4466;SDS011;2246;42.664;23.278;2023-07-22T13:23:52;21.55;;;5.40;;
4466;SDS011;2246;42.664;23.278;2023-07-22T13:26:18;20.40;;;5.10;;
4466;SDS011;2246;42.664;23.278;2023-07-22T13:28:44;25.80;;;4.95;;
4466;SDS011;2246;42.664;23.278;2023-07-22T13:31:10;21.13;;;4.80;;
4466;SDS011;2246;42.664;23.278;2023-07-22T13:33:36;23.57;;;5.30;;
4466;SDS011;2246;42.664;23.278;2023-07-22T13:36:02;23.03;;;5.77;;
4466;SDS011;2246;42.664;23.278;2023-07-22T13:38:28;22.33;;;4.87;;
4466;SDS011;2246;42.664;23.278;2023-07-22T13:40:54;25.17;;;4.60;;
4466;SDS011;2246;42.664;23.278;2023-07-22T13:43:20;19.98;;;4.97;;
4466;SDS011;2246;42.664;23.278;2023-07-22T13:45:46;23.87;;;4.90;;
4466;SDS011;2246;42.664;23.278;2023-07-22T13:48:12;27.20;;;6.30;;
4466;SDS011;2246;42.664;23.278;2023-07-22T13:50:38;29.70;;;5.93;;
4466;SDS011;2246;42.664;23.278;2023-07-22T13:53:05;25.95;;;5.15;;
4466;SDS011;2246;42.664;23.278;2023-07-22T13:55:31;37.43;;;5.87;;
4466;SDS011;2246;42.664;23.278;2023-07-22T13:57:57;17.43;;;4.97;;
4466;SDS011;2246;42.664;23.278;2023-07-22T14:00:23;26.40;;;5.80;;
4466;SDS011;2246;42.664;23.278;2023-07-22T14:02:50;31.53;;;5.93;;
4466;SDS011;2246;42.664;23.278;2023-07-22T14:05:16;24.87;;;4.73;;
4466;SDS011;2246;42.664;23.278;2023-07-22T14:07:42;23.87;;;5.40;;
4466;SDS011;2246;42.664;23.278;2023-07-22T14:10:08;32.43;;;5.27;;
4466;SDS011;2246;42.664;23.278;2023-07-22T14:12:34;28.40;;;5.40;;
4466;SDS011;2246;42.664;23.278;2023-07-22T14:15:00;25.70;;;5.15;;
4466;SDS011;2246;42.664;23.278;2023-07-22T14:17:29;16.25;;;4.65;;
4466;SDS011;2246;42.664;23.278;2023-07-22T14:19:57;24.45;;;4.90;;
4466;SDS011;2246;42.664;23.278;2023-07-22T14:22:23;18.27;;;5.28;;
4466;SDS011;2246;42.664;23.278;2023-07-22T14:24:49;27.70;;;5.33;;
4466;SDS011;2246;42.664;23.278;2023-07-22T14:27:15;27.40;;;5.33;;
4466;SDS011;2246;42.664;23.278;2023-07-22T14:29:41;24.77;;;5.73;;
4466;SDS011;2246;42.664;23.278;2023-07-22T14:32:07;29.53;;;4.90;;
4466;SDS011;2246;42.664;23.278;2023-07-22T14:34:34;20.92;;;5.25;;
4466;SDS011;2246;42.664;23.278;2023-07-22T14:37:00;37.23;;;5.63;;
4466;SDS011;2246;42.664;23.278;2023-07-22T14:39:26;24.98;;;5.03;;
4466;SDS011;2246;42.664;23.278;2023-07-22T14:41:52;18.98;;;5.18;;
4466;SDS011;2246;42.664;23.278;2023-07-22T14:44:19;18.08;;;5.47;;
4466;SDS011;2246;42.664;23.278;2023-07-22T14:46:45;21.37;;;5.20;;
4466;SDS011;2246;42.664;23.278;2023-07-22T14:49:12;27.20;;;5.22;;
4466;SDS011;2246;42.664;23.278;2023-07-22T14:51:38;24.90;;;5.30;;
4466;SDS011;2246;42.664;23.278;2023-07-22T14:54:04;24.03;;;5.50;;
4466;SDS011;2246;42.664;23.278;2023-07-22T14:56:30;23.13;;;5.40;;
4466;SDS011;2246;42.664;23.278;2023-07-22T14:58:56;27.63;;;5.27;;
4466;SDS011;2246;42.664;23.278;2023-07-22T15:01:22;19.40;;;6.03;;
4466;SDS011;2246;42.664;23.278;2023-07-22T15:03:48;26.93;;;5.23;;
4466;SDS011;2246;42.664;23.278;2023-07-22T15:06:14;30.95;;;6.03;;
4466;SDS011;2246;42.664;23.278;2023-07-22T15:08:40;28.97;;;6.87;;
4466;SDS011;2246;42.664;23.278;2023-07-22T15:11:07;19.00;;;5.10;;
4466;SDS011;2246;42.664;23.278;2023-07-22T15:13:33;31.98;;;5.72;;